Time;durP1;ratioP1;P1;durP2;ratioP2;P2;SDS_P1;SDS_P2;PMS_P1;PMS_P2;Temp;Humidity;BMP_temperature;BMP_pressure;BME280_temperature;BME280_humidity;BME280_pressure;Samples;Min_cycle;Max_cycle;Signal;HPM_P1;HPM_P2
2022/04/18 00:01:11;;;;;;;4.13;3.03;;;4.90;99.90;;;;;;5055808;28;20066;-92
2022/04/18 00:03:37;;;;;;;3.60;2.67;;;4.80;99.90;;;;;;5073777;28;20095;-93
2022/04/18 00:06:15;;;;;;;4.55;3.13;;;4.70;99.90;;;;;;5055980;28;20020;-92
2022/04/18 00:08:41;;;;;;;10.45;3.67;;;4.70;99.90;;;;;;5055635;28;20024;-92
2022/04/18 00:11:06;;;;;;;6.40;2.80;;;4.70;99.90;;;;;;5055763;28;20028;-92
2022/04/18 00:13:55;;;;;;;4.25;2.95;;;4.60;99.90;;;;;;5073675;28;20036;-92
2022/04/18 00:16:21;;;;;;;3.45;2.72;;;4.60;99.90;;;;;;5073609;28;20028;-93
2022/04/18 00:18:46;;;;;;;5.55;2.97;;;4.60;99.90;;;;;;5073867;28;20035;-92
2022/04/18 00:21:34;;;;;;;3.30;2.70;;;4.60;99.90;;;;;;5073493;28;20028;-92
2022/04/18 00:24:00;;;;;;;5.15;2.20;;;4.60;99.90;;;;;;5055489;28;20036;-92
2022/04/18 00:26:25;;;;;;;4.30;2.97;;;4.60;99.90;;;;;;5055526;28;20025;-92
2022/04/18 00:29:17;;;;;;;4.97;3.38;;;4.60;99.90;;;;;;5050214;28;20059;-92
2022/04/18 00:31:43;;;;;;;5.35;3.20;;;4.60;99.90;;;;;;5033710;28;20465;-92
2022/04/18 00:34:09;;;;;;;4.28;3.00;;;4.50;99.90;;;;;;5033435;28;20026;-92
2022/04/18 00:39:56;;;;;;;4.93;3.08;;;4.50;99.90;;;;;;5033546;28;20117;-92
2022/04/18 00:45:44;;;;;;;3.92;2.95;;;4.50;99.90;;;;;;5037195;28;20040;-93
2022/04/18 00:48:23;;;;;;;5.30;3.20;;;4.50;99.90;;;;;;5037097;28;20029;-92
2022/04/18 00:50:48;;;;;;;3.67;2.88;;;4.50;99.90;;;;;;5036074;28;20049;-93
2022/04/18 00:53:14;;;;;;;3.22;2.78;;;4.40;99.90;;;;;;5035831;28;20061;-93
2022/04/18 00:59:03;;;;;;;4.60;2.90;;;4.40;99.90;;;;;;5036915;28;20036;-93
2022/04/18 01:01:43;;;;;;;3.55;2.55;;;4.40;99.90;;;;;;5035763;28;20067;-92
2022/04/18 01:04:08;;;;;;;10.75;3.95;;;4.40;99.90;;;;;;5035616;28;20422;-92
2022/04/18 01:06:34;;;;;;;6.07;3.58;;;4.30;99.90;;;;;;5035619;28;20057;-93
2022/04/18 01:12:22;;;;;;;7.25;3.10;;;4.20;99.90;;;;;;5036714;28;20515;-93
2022/04/18 01:15:02;;;;;;;5.03;3.25;;;4.20;99.90;;;;;;5035672;28;20022;-93
2022/04/18 01:17:27;;;;;;;4.07;2.70;;;4.20;99.90;;;;;;5036495;28;20022;-92
2022/04/18 01:19:53;;;;;;;5.50;3.10;;;4.20;99.90;;;;;;5035378;28;20028;-92
2022/04/18 01:22:36;;;;;;;5.25;3.42;;;4.20;99.90;;;;;;5036290;28;20025;-92
2022/04/18 01:31:12;;;;;;;11.15;6.18;;;4.20;99.90;;;;;;5061740;28;20095;-93
2022/04/18 01:33:38;;;;;;;15.27;6.25;;;4.20;99.90;;;;;;5058288;28;20429;-92
2022/04/18 01:36:42;;;;;;;8.95;5.65;;;4.20;99.90;;;;;;5076193;28;20024;-92
2022/04/18 01:39:07;;;;;;;8.52;5.88;;;4.20;99.90;;;;;;5058086;28;20086;-93
2022/04/18 01:41:46;;;;;;;9.80;5.53;;;4.10;99.90;;;;;;5057976;28;20032;-91
2022/04/18 01:44:12;;;;;;;9.15;5.07;;;4.10;99.90;;;;;;5075762;28;20448;-92
2022/04/18 01:46:38;;;;;;;7.60;4.47;;;4.00;99.90;;;;;;5058471;28;20055;-93
2022/04/18 01:49:18;;;;;;;6.07;4.93;;;4.00;99.90;;;;;;5058153;28;20020;-93
2022/04/18 01:51:44;;;;;;;11.43;4.97;;;4.00;99.90;;;;;;5058409;28;20051;-93
2022/04/18 01:54:09;;;;;;;6.80;4.60;;;4.00;99.90;;;;;;5057777;28;20048;-93
2022/04/18 01:56:35;;;;;;;5.22;4.03;;;3.90;99.90;;;;;;5057921;28;20055;-93
2022/04/18 01:59:01;;;;;;;6.45;4.57;;;4.00;99.90;;;;;;5057905;28;20021;-93
2022/04/18 02:01:31;;;;;;;5.65;3.95;;;4.00;99.90;;;;;;5057828;28;20024;-93
2022/04/18 02:03:56;;;;;;;7.35;4.05;;;4.00;99.90;;;;;;5075737;28;20055;-92
2022/04/18 02:06:25;;;;;;;7.55;4.18;;;4.00;99.90;;;;;;5057910;28;20105;-93
2022/04/18 02:08:51;;;;;;;5.53;4.00;;;4.00;99.90;;;;;;5057767;28;20031;-93
2022/04/18 02:11:17;;;;;;;5.20;3.95;;;3.90;99.90;;;;;;5057633;28;20029;-93
2022/04/18 02:13:44;;;;;;;5.68;3.78;;;3.90;99.90;;;;;;5075679;28;20463;-93
2022/04/18 02:16:09;;;;;;;8.18;4.88;;;3.90;99.90;;;;;;5057270;28;20023;-93
2022/04/18 02:19:08;;;;;;;5.78;3.92;;;3.80;99.90;;;;;;5075252;28;20032;-93
2022/04/18 02:21:33;;;;;;;5.10;3.65;;;3.70;99.90;;;;;;5075235;28;20468;-92
2022/04/18 02:23:59;;;;;;;5.43;3.90;;;3.70;99.90;;;;;;5057444;28;20025;-92
2022/04/18 02:26:40;;;;;;;7.65;4.18;;;3.60;99.90;;;;;;5057192;28;20025;-92
2022/04/18 02:29:06;;;;;;;5.05;3.60;;;3.60;99.90;;;;;;5075063;28;20020;-93
2022/04/18 02:32:47;;;;;;;5.63;3.60;;;3.60;99.90;;;;;;5049881;28;20749;-93
2022/04/18 02:34:17;;;;;;;6.55;3.45;;;3.60;99.90;;;;;;5016789;28;20036;-92
2022/04/18 02:40:06;;;;;;;5.60;3.90;;;3.60;99.90;;;;;;5035060;28;20531;-92
2022/04/18 02:43:04;;;;;;;9.35;3.65;;;3.60;99.90;;;;;;5050455;28;20034;-93
2022/04/18 02:45:31;;;;;;;9.00;3.80;;;3.70;99.90;;;;;;5033653;28;20033;-92
2022/04/18 02:47:57;;;;;;;6.43;4.13;;;3.70;99.90;;;;;;5033521;28;20396;-93
2022/04/18 02:50:34;;;;;;;5.90;3.72;;;3.70;99.90;;;;;;5033588;28;20030;-92
2022/04/18 02:53:00;;;;;;;5.53;3.42;;;3.70;99.90;;;;;;5034646;28;20025;-82
2022/04/18 02:55:25;;;;;;;5.13;3.88;;;3.60;99.90;;;;;;5032935;28;20420;-82
2022/04/18 02:57:52;;;;;;;5.75;3.50;;;3.50;99.90;;;;;;5033209;28;20029;-82
2022/04/18 03:00:18;;;;;;;9.15;3.75;;;3.50;99.90;;;;;;5033389;28;20021;-81
2022/04/18 03:02:44;;;;;;;4.78;3.05;;;3.50;99.90;;;;;;5033499;28;20072;-82
2022/04/18 03:05:11;;;;;;;3.22;2.75;;;3.40;99.90;;;;;;5033514;28;20496;-82
2022/04/18 03:07:37;;;;;;;9.77;3.95;;;3.30;99.90;;;;;;5031445;28;20103;-81
2022/04/18 03:10:04;;;;;;;4.45;2.90;;;3.30;99.90;;;;;;5032685;28;20485;-81
2022/04/18 03:12:29;;;;;;;4.55;3.15;;;3.30;99.90;;;;;;5033231;28;20057;-82
2022/04/18 03:14:55;;;;;;;4.20;2.83;;;3.30;99.90;;;;;;5032320;28;20470;-82
2022/04/18 03:17:21;;;;;;;2.80;2.55;;;3.30;99.90;;;;;;5033133;28;20033;-82
2022/04/18 03:19:46;;;;;;;3.42;3.00;;;3.20;99.90;;;;;;5033548;28;20500;-82
2022/04/18 03:22:12;;;;;;;3.80;2.60;;;3.20;99.90;;;;;;5033296;28;20420;-82
2022/04/18 03:24:38;;;;;;;5.03;3.35;;;3.30;99.90;;;;;;5031336;28;20071;-82
2022/04/18 03:27:04;;;;;;;4.75;3.53;;;3.30;99.90;;;;;;5032715;28;20036;-82
2022/04/18 03:29:32;;;;;;;4.60;3.28;;;3.30;99.90;;;;;;5033056;28;20032;-82
2022/04/18 03:31:58;;;;;;;7.80;3.50;;;3.20;99.90;;;;;;5069542;28;20094;-81
2022/04/18 03:34:24;;;;;;;5.00;3.85;;;3.20;99.90;;;;;;5054639;28;20028;-82
2022/04/18 03:39:50;;;;;;;5.93;3.67;;;3.10;99.90;;;;;;5072033;28;20031;-81
2022/04/18 03:42:18;;;;;;;8.23;3.85;;;3.10;99.90;;;;;;5072816;28;20075;-81
2022/04/18 03:44:46;;;;;;;4.05;3.03;;;3.00;99.90;;;;;;5054557;28;20028;-81
2022/04/18 03:47:12;;;;;;;5.03;3.80;;;3.00;99.90;;;;;;5072523;28;20016;-81
2022/04/18 03:49:39;;;;;;;4.97;3.70;;;3.00;99.90;;;;;;5072907;28;20103;-81
2022/04/18 03:52:06;;;;;;;6.10;3.85;;;3.00;99.90;;;;;;5072426;28;20056;-81
2022/04/18 03:54:34;;;;;;;6.35;3.92;;;3.00;99.90;;;;;;5053295;28;20447;-81
2022/04/18 03:57:02;;;;;;;4.97;3.20;;;3.10;99.90;;;;;;5072543;28;20444;-81
2022/04/18 03:59:27;;;;;;;5.95;3.90;;;3.00;99.90;;;;;;5072386;28;20353;-82
2022/04/18 04:01:53;;;;;;;8.25;4.20;;;3.00;99.90;;;;;;5072728;28;20026;-81
2022/04/18 04:04:18;;;;;;;6.43;4.20;;;3.00;99.90;;;;;;5072060;28;20419;-81
2022/04/18 04:06:44;;;;;;;10.02;5.07;;;3.00;99.90;;;;;;5072249;28;20036;-81
2022/04/18 04:09:10;;;;;;;6.65;3.90;;;2.90;99.90;;;;;;5054004;28;20544;-81
2022/04/18 04:11:36;;;;;;;5.35;3.60;;;2.90;99.90;;;;;;5072211;28;20032;-81
2022/04/18 04:14:01;;;;;;;4.65;3.42;;;3.00;99.90;;;;;;5054711;28;20025;-81
2022/04/18 04:16:27;;;;;;;4.05;3.42;;;3.00;99.90;;;;;;5072290;28;20025;-81
2022/04/18 04:18:52;;;;;;;5.55;3.80;;;3.10;99.90;;;;;;5075164;28;20058;-81
2022/04/18 04:21:18;;;;;;;7.93;3.88;;;3.10;99.90;;;;;;5076048;28;20043;-81
2022/04/18 04:23:44;;;;;;;4.38;3.58;;;3.00;99.90;;;;;;5075533;28;20032;-82
2022/04/18 04:26:10;;;;;;;5.47;4.00;;;3.00;99.90;;;;;;5053215;28;20098;-81
2022/04/18 04:28:36;;;;;;;5.68;3.72;;;2.90;99.90;;;;;;5076185;28;20124;-82
2022/04/18 04:31:04;;;;;;;5.90;3.70;;;2.90;99.90;;;;;;5058246;28;20036;-81
2022/04/18 04:33:31;;;;;;;4.90;3.42;;;2.90;99.90;;;;;;5076177;28;20033;-81
2022/04/18 04:36:00;;;;;;;9.95;3.97;;;2.80;99.90;;;;;;5058493;28;20029;-80
2022/04/18 04:38:26;;;;;;;12.75;4.65;;;2.80;99.90;;;;;;5075737;28;20480;-80
2022/04/18 04:40:54;;;;;;;7.40;4.90;;;2.80;99.90;;;;;;5075739;28;20020;-81
2022/04/18 04:43:20;;;;;;;7.60;4.30;;;2.80;99.90;;;;;;5058028;28;20361;-81
2022/04/18 04:45:46;;;;;;;8.98;5.18;;;2.80;99.90;;;;;;5058077;28;20150;-81
2022/04/18 04:48:12;;;;;;;13.00;4.70;;;2.70;99.90;;;;;;5076075;28;20473;-81
2022/04/18 04:50:39;;;;;;;8.88;4.65;;;2.80;99.90;;;;;;5074604;28;20081;-81
2022/04/18 04:53:05;;;;;;;6.63;4.25;;;2.80;99.90;;;;;;5075206;28;20046;-81
2022/04/18 04:55:32;;;;;;;9.57;5.22;;;2.80;99.90;;;;;;5075213;28;20115;-80
2022/04/18 04:57:57;;;;;;;9.75;5.60;;;2.90;99.90;;;;;;5074773;28;20028;-81
2022/04/18 05:00:26;;;;;;;8.98;5.35;;;2.90;99.90;;;;;;5057629;28;20062;-80
2022/04/18 05:02:55;;;;;;;7.30;4.68;;;2.90;99.90;;;;;;5075618;28;20031;-80
2022/04/18 05:05:21;;;;;;;6.20;4.22;;;3.00;99.90;;;;;;5057428;28;20111;-80
2022/04/18 05:07:46;;;;;;;9.63;4.90;;;3.00;99.90;;;;;;5075411;28;20429;-81
2022/04/18 05:10:12;;;;;;;7.18;4.75;;;3.10;99.90;;;;;;5056581;28;20472;-80
2022/04/18 05:12:37;;;;;;;6.32;4.15;;;3.20;99.90;;;;;;5075038;28;20032;-80
2022/04/18 05:15:04;;;;;;;5.60;4.22;;;3.20;99.90;;;;;;5075685;28;20055;-81
2022/04/18 05:17:30;;;;;;;7.15;4.78;;;3.40;99.90;;;;;;5059293;28;20017;-81
2022/04/18 05:19:56;;;;;;;5.10;4.15;;;3.30;99.90;;;;;;5075347;28;20021;-81
2022/04/18 05:22:21;;;;;;;6.32;3.97;;;3.40;99.90;;;;;;5068625;28;20104;-81
2022/04/18 05:24:47;;;;;;;7.53;3.90;;;3.50;99.90;;;;;;5072651;28;20032;-81
2022/04/18 05:27:15;;;;;;;6.60;4.82;;;3.50;99.90;;;;;;5055106;28;20503;-81
2022/04/18 05:29:44;;;;;;;6.78;4.35;;;3.60;99.90;;;;;;5073614;28;20064;-81
2022/04/18 05:32:11;;;;;;;3.95;3.13;;;3.60;99.90;;;;;;5057217;28;20040;-80
2022/04/18 05:34:36;;;;;;;6.78;3.72;;;3.70;99.90;;;;;;5073611;28;20021;-80
2022/04/18 05:37:03;;;;;;;7.90;4.20;;;3.80;99.90;;;;;;5073770;28;20515;-80
2022/04/18 05:39:28;;;;;;;6.68;4.07;;;3.90;99.90;;;;;;5074348;28;20029;-80
2022/04/18 05:41:56;;;;;;;7.90;3.92;;;4.00;99.90;;;;;;5074022;28;20511;-80
2022/04/18 05:44:22;;;;;;;7.03;3.80;;;4.10;99.90;;;;;;5074113;28;20036;-80
2022/04/18 05:46:49;;;;;;;7.63;4.10;;;4.20;99.90;;;;;;5056600;28;20024;-80
2022/04/18 05:49:15;;;;;;;7.35;3.92;;;4.30;99.90;;;;;;5074128;28;20025;-80
2022/04/18 05:51:41;;;;;;;5.97;3.90;;;4.40;99.90;;;;;;5074273;28;20099;-80
2022/04/18 05:54:07;;;;;;;4.60;3.70;;;4.50;99.90;;;;;;5073512;28;20028;-80
2022/04/18 05:56:32;;;;;;;4.55;3.40;;;4.60;99.90;;;;;;5055878;28;20392;-80
2022/04/18 05:58:58;;;;;;;7.30;3.72;;;4.60;99.90;;;;;;5073727;28;20439;-80
2022/04/18 06:01:24;;;;;;;5.13;3.78;;;4.70;99.90;;;;;;5055776;28;20024;-80
2022/04/18 06:03:49;;;;;;;6.90;3.80;;;4.80;99.90;;;;;;5073541;28;20027;-80
2022/04/18 06:06:15;;;;;;;6.55;4.40;;;4.90;99.90;;;;;;5073457;28;20493;-81
2022/04/18 06:08:41;;;;;;;5.20;3.97;;;5.00;99.90;;;;;;5073863;28;20963;-80
2022/04/18 06:11:07;;;;;;;10.55;4.47;;;5.10;99.90;;;;;;5073409;28;20021;-80
2022/04/18 06:13:33;;;;;;;9.50;4.93;;;5.20;99.90;;;;;;5073237;28;20038;-80
2022/04/18 06:15:58;;;;;;;23.25;10.38;;;5.20;99.90;;;;;;5074014;28;20024;-80
2022/04/18 06:18:24;;;;;;;35.47;15.55;;;5.40;99.90;;;;;;5054937;28;20028;-80
2022/04/18 06:20:50;;;;;;;35.20;16.73;;;5.50;99.90;;;;;;5073430;28;20381;-80
2022/04/18 06:23:19;;;;;;;30.08;15.10;;;5.50;99.90;;;;;;5055540;28;20023;-80
2022/04/18 06:25:44;;;;;;;26.33;12.73;;;5.60;99.90;;;;;;5072814;28;20392;-80
2022/04/18 06:28:12;;;;;;;24.25;12.43;;;5.70;99.90;;;;;;5073547;28;20029;-80
2022/04/18 06:30:38;;;;;;;24.40;11.93;;;5.70;99.90;;;;;;5072979;28;20072;-80
2022/04/18 06:33:04;;;;;;;22.08;11.88;;;5.80;99.90;;;;;;5073189;28;20027;-80
2022/04/18 06:35:30;;;;;;;23.60;11.82;;;5.80;99.90;;;;;;5055675;28;20028;-80
2022/04/18 06:37:56;;;;;;;18.55;10.77;;;5.80;99.90;;;;;;5073210;28;20029;-80
2022/04/18 06:40:21;;;;;;;17.10;10.65;;;5.90;99.90;;;;;;5072458;28;20464;-80
2022/04/18 06:42:47;;;;;;;19.75;10.85;;;6.00;99.90;;;;;;5067619;28;20090;-80
2022/04/18 06:45:13;;;;;;;18.65;9.73;;;6.10;99.90;;;;;;5073069;28;20077;-80
2022/04/18 06:47:38;;;;;;;20.05;10.27;;;6.10;99.90;;;;;;5072828;28;20495;-80
2022/04/18 06:50:10;;;;;;;11.15;6.93;;;6.20;99.90;;;;;;5072709;28;20032;-80
2022/04/18 06:52:39;;;;;;;9.65;6.20;;;6.30;99.90;;;;;;5072572;28;20028;-80
2022/04/18 06:55:06;;;;;;;12.70;7.70;;;6.40;99.90;;;;;;5070362;28;20524;-80
2022/04/18 06:57:32;;;;;;;9.38;5.53;;;6.50;99.90;;;;;;5054983;28;20031;-80
2022/04/18 06:59:58;;;;;;;8.40;6.00;;;6.60;99.90;;;;;;5072554;28;20025;-79
2022/04/18 07:02:23;;;;;;;10.57;5.75;;;6.70;99.90;;;;;;5071946;28;20048;-80
2022/04/18 07:04:49;;;;;;;12.00;7.10;;;6.80;99.90;;;;;;5073135;28;20059;-80
2022/04/18 07:07:15;;;;;;;14.35;6.20;;;6.80;99.90;;;;;;5072361;28;20035;-80
2022/04/18 07:09:41;;;;;;;15.43;7.22;;;6.90;99.90;;;;;;5072975;28;20953;-80
2022/04/18 07:12:07;;;;;;;11.43;6.57;;;6.90;99.90;;;;;;5073093;28;20392;-80
2022/04/18 07:14:36;;;;;;;12.98;6.25;;;7.00;99.90;;;;;;5053904;28;20060;-80
2022/04/18 07:17:01;;;;;;;10.50;6.10;;;7.00;99.90;;;;;;5072372;28;20399;-80
2022/04/18 07:19:28;;;;;;;11.23;5.03;;;7.00;99.90;;;;;;5054294;28;20195;-83
2022/04/18 07:21:55;;;;;;;12.50;6.53;;;7.10;99.90;;;;;;5071511;28;20021;-80
2022/04/18 07:24:22;;;;;;;12.27;6.85;;;7.10;99.90;;;;;;5071082;28;20035;-79
2022/04/18 07:26:48;;;;;;;11.57;6.28;;;7.20;99.90;;;;;;5070947;28;20036;-80
2022/04/18 07:29:13;;;;;;;12.93;6.93;;;7.30;99.90;;;;;;5072589;28;20089;-80
2022/04/18 07:31:39;;;;;;;11.20;6.72;;;7.30;99.90;;;;;;5051057;28;20057;-80
2022/04/18 07:34:05;;;;;;;15.45;7.07;;;7.40;99.90;;;;;;5052575;28;20111;-80
2022/04/18 07:36:30;;;;;;;18.13;6.97;;;7.50;99.90;;;;;;5052372;28;20469;-79
2022/04/18 07:38:56;;;;;;;13.65;7.88;;;7.60;99.90;;;;;;5043136;28;20036;-80
2022/04/18 07:41:27;;;;;;;14.98;7.22;;;7.60;99.90;;;;;;5032992;28;20025;-80
2022/04/18 07:43:54;;;;;;;13.85;8.00;;;7.70;99.90;;;;;;5041857;28;20025;-80
2022/04/18 07:46:20;;;;;;;13.63;7.55;;;7.70;99.90;;;;;;5052713;28;20051;-79
2022/04/18 07:48:47;;;;;;;16.67;7.70;;;7.70;99.90;;;;;;5051161;28;20120;-80
2022/04/18 07:51:32;;;;;;;13.45;7.38;;;7.80;99.90;;;;;;5051145;28;20040;-80
2022/04/18 07:53:58;;;;;;;14.27;7.95;;;7.80;99.90;;;;;;5051040;28;20112;-80
2022/04/18 07:56:24;;;;;;;16.58;8.15;;;7.90;99.90;;;;;;5050884;28;20537;-80
2022/04/18 07:58:53;;;;;;;17.17;9.13;;;8.00;99.90;;;;;;5052556;28;20025;-80
2022/04/18 08:01:20;;;;;;;15.55;9.23;;;8.10;99.90;;;;;;5052246;28;20536;-80
2022/04/18 08:03:47;;;;;;;19.48;9.73;;;8.10;99.90;;;;;;5052279;28;20029;-80
2022/04/18 08:06:13;;;;;;;15.82;8.52;;;8.20;99.90;;;;;;5051949;28;20029;-80
2022/04/18 08:08:39;;;;;;;18.13;9.63;;;8.30;99.90;;;;;;5052030;28;20526;-81
2022/04/18 08:11:04;;;;;;;36.97;9.60;;;8.40;99.90;;;;;;5051983;28;20033;-83
2022/04/18 08:13:30;;;;;;;19.85;8.98;;;8.40;99.90;;;;;;5051914;28;20529;-80
2022/04/18 08:15:56;;;;;;;25.75;9.55;;;8.50;99.90;;;;;;5051981;28;20036;-81
2022/04/18 08:18:22;;;;;;;14.70;8.82;;;8.50;99.90;;;;;;5050878;28;20029;-82
2022/04/18 08:20:48;;;;;;;15.57;8.23;;;8.60;99.90;;;;;;5052726;28;20096;-80
2022/04/18 08:23:14;;;;;;;14.93;8.45;;;8.70;99.90;;;;;;5050856;28;20111;-80
2022/04/18 08:25:40;;;;;;;19.85;9.13;;;8.70;99.90;;;;;;5052411;28;20029;-80
2022/04/18 08:28:05;;;;;;;17.67;9.25;;;8.80;99.90;;;;;;5051486;28;20024;-80
2022/04/18 08:30:31;;;;;;;19.65;9.82;;;8.80;99.90;;;;;;5057825;28;20044;-77
2022/04/18 08:32:57;;;;;;;18.25;9.68;;;8.80;99.90;;;;;;5071646;28;20027;-77
2022/04/18 08:35:22;;;;;;;20.90;9.63;;;8.80;99.90;;;;;;5072158;28;20033;-77
2022/04/18 08:37:48;;;;;;;14.80;8.70;;;8.90;99.90;;;;;;5071730;28;20043;-77
2022/04/18 08:40:14;;;;;;;19.27;9.65;;;8.90;99.90;;;;;;5071219;28;20025;-76
2022/04/18 08:42:41;;;;;;;16.80;9.57;;;8.90;99.90;;;;;;5071706;28;20016;-77
2022/04/18 08:45:14;;;;;;;17.70;9.50;;;9.00;99.90;;;;;;5071388;28;20035;-75
2022/04/18 08:53:14;;;;;;;18.00;10.73;;;9.10;99.90;;;;;;5071094;28;20039;-78
2022/04/18 08:55:41;;;;;;;20.83;10.60;;;9.20;99.90;;;;;;5070537;28;20037;-78
2022/04/18 08:58:09;;;;;;;24.13;11.07;;;9.30;99.90;;;;;;5070730;28;20545;-78
2022/04/18 09:00:35;;;;;;;21.30;10.73;;;9.40;99.90;;;;;;5071851;28;20023;-77
2022/04/18 09:03:00;;;;;;;20.92;11.65;;;9.40;99.90;;;;;;5071312;28;20020;-78
2022/04/18 09:05:26;;;;;;;22.10;10.70;;;9.40;99.90;;;;;;5071669;28;20031;-78
2022/04/18 09:08:04;;;;;;;17.95;9.88;;;9.50;99.90;;;;;;5057025;28;20032;-78
2022/04/18 09:10:29;;;;;;;19.65;10.45;;;9.60;99.90;;;;;;5074949;28;20484;-78
2022/04/18 09:13:08;;;;;;;21.15;11.73;;;9.60;99.90;;;;;;5075109;28;20033;-78
2022/04/18 09:15:38;;;;;;;22.20;11.25;;;9.70;99.90;;;;;;5074888;28;20031;-78
2022/04/18 09:18:12;;;;;;;16.85;10.10;;;9.70;99.90;;;;;;5075394;28;20033;-78
2022/04/18 09:20:57;;;;;;;23.92;13.68;;;9.70;99.90;;;;;;5074943;28;20016;-78
2022/04/18 09:23:28;;;;;;;30.77;15.95;;;9.80;99.90;;;;;;5071099;28;20039;-78
2022/04/18 09:25:57;;;;;;;27.15;16.20;;;9.80;99.90;;;;;;5072036;28;20029;-78
2022/04/18 09:28:24;;;;;;;25.38;13.98;;;9.90;99.90;;;;;;5073376;28;20031;-78
2022/04/18 09:31:08;;;;;;;22.88;11.90;;;10.00;99.90;;;;;;5053574;28;20071;-78
2022/04/18 09:33:41;;;;;;;21.75;12.50;;;10.10;99.90;;;;;;5062901;28;20060;-78
2022/04/18 09:36:16;;;;;;;18.50;11.32;;;10.10;99.90;;;;;;5071241;28;20028;-78
2022/04/18 09:38:48;;;;;;;20.90;12.60;;;10.20;99.90;;;;;;5073489;28;20678;-78
2022/04/18 09:41:20;;;;;;;23.98;13.43;;;10.30;99.90;;;;;;5074445;28;20387;-78
2022/04/18 09:43:47;;;;;;;18.85;11.10;;;10.40;99.90;;;;;;5073766;28;20166;-78
2022/04/18 09:46:16;;;;;;;19.75;12.13;;;10.50;99.90;;;;;;5074029;28;20484;-78
2022/04/18 09:48:43;;;;;;;21.00;12.48;;;10.50;99.90;;;;;;5074523;28;20450;-78
2022/04/18 09:51:25;;;;;;;22.77;12.55;;;10.50;99.90;;;;;;5074308;28;20025;-78
2022/04/18 09:53:54;;;;;;;22.45;13.45;;;10.70;99.90;;;;;;5072143;28;20033;-78
2022/04/18 09:56:21;;;;;;;20.08;12.90;;;10.70;99.90;;;;;;5071668;28;20171;-78
2022/04/18 09:58:47;;;;;;;21.25;14.52;;;10.70;99.90;;;;;;5074005;28;20039;-78
2022/04/18 10:01:16;;;;;;;18.67;12.77;;;10.80;99.90;;;;;;5072827;28;20025;-78
2022/04/18 10:03:43;;;;;;;20.20;12.52;;;10.80;99.90;;;;;;5054819;28;20024;-78
2022/04/18 10:06:09;;;;;;;20.02;12.35;;;10.80;99.90;;;;;;5073192;28;20012;-78
2022/04/18 10:08:36;;;;;;;19.75;11.98;;;10.90;99.90;;;;;;5073423;28;20028;-78
2022/04/18 10:11:04;;;;;;;17.10;10.23;;;10.90;99.90;;;;;;5073463;28;20028;-78
2022/04/18 10:13:30;;;;;;;15.45;8.90;;;10.90;99.90;;;;;;5073971;28;20267;-78
2022/04/18 10:16:00;;;;;;;14.32;9.82;;;10.90;99.90;;;;;;5073208;28;20075;-78
2022/04/18 10:18:27;;;;;;;16.70;10.27;;;11.00;99.90;;;;;;5073847;28;20103;-78
2022/04/18 10:21:14;;;;;;;19.45;9.13;;;11.00;99.90;;;;;;5072877;28;20547;-78
2022/04/18 10:23:59;;;;;;;16.80;9.65;;;11.00;99.90;;;;;;5072592;28;20454;-78
2022/04/18 10:27:02;;;;;;;21.88;11.38;;;11.00;99.90;;;;;;5055638;28;20063;-78
2022/04/18 10:29:31;;;;;;;27.60;11.85;;;11.10;99.90;;;;;;5073225;28;20086;-78
2022/04/18 10:32:03;;;;;;;13.60;9.55;;;11.20;99.90;;;;;;5071662;28;20040;-78
2022/04/18 10:34:31;;;;;;;16.45;9.10;;;11.20;99.90;;;;;;5073358;28;20039;-78
2022/04/18 10:37:00;;;;;;;19.02;10.07;;;11.30;99.90;;;;;;5055615;28;20131;-78
2022/04/18 10:39:36;;;;;;;18.08;9.40;;;11.30;99.90;;;;;;5072433;28;20373;-78
2022/04/18 10:42:21;;;;;;;15.77;8.63;;;11.40;99.90;;;;;;5057723;28;20115;-78
2022/04/18 10:45:07;;;;;;;17.52;8.80;;;11.40;99.90;;;;;;5072232;28;20028;-78
2022/04/18 10:48:03;;;;;;;15.90;8.70;;;11.50;99.90;;;;;;5072543;28;20111;-77
2022/04/18 10:50:38;;;;;;;14.60;9.55;;;11.60;99.90;;;;;;5072008;28;20029;-77
2022/04/18 10:53:14;;;;;;;18.13;10.43;;;11.60;99.90;;;;;;5054485;28;20033;-78
2022/04/18 10:55:51;;;;;;;15.25;9.15;;;11.70;99.90;;;;;;5073086;28;20103;-77
2022/04/18 10:58:20;;;;;;;13.77;8.45;;;11.80;99.90;;;;;;5073086;28;20024;-78
2022/04/18 11:00:47;;;;;;;18.23;9.60;;;11.80;99.90;;;;;;5072697;28;20024;-78
2022/04/18 11:03:13;;;;;;;16.55;8.43;;;11.80;99.90;;;;;;5054812;28;20401;-78
2022/04/18 11:05:39;;;;;;;12.52;7.90;;;11.80;99.90;;;;;;5072962;28;20028;-77
2022/04/18 11:08:27;;;;;;;12.35;8.52;;;11.80;99.90;;;;;;5072159;28;20047;-77
2022/04/18 11:11:03;;;;;;;17.45;8.93;;;11.80;99.90;;;;;;5072870;28;20107;-77
2022/04/18 11:13:31;;;;;;;14.20;9.27;;;11.80;99.90;;;;;;5072461;28;20031;-77
2022/04/18 11:16:22;;;;;;;16.02;8.95;;;11.90;99.90;;;;;;5072597;28;20480;-77
2022/04/18 11:19:07;;;;;;;16.42;9.07;;;11.90;99.90;;;;;;5072656;28;20025;-78
2022/04/18 11:21:55;;;;;;;13.43;8.53;;;12.10;99.90;;;;;;5072512;28;20027;-77
2022/04/18 11:24:49;;;;;;;15.02;8.77;;;12.10;99.90;;;;;;5072106;28;20116;-77
2022/04/18 11:27:17;;;;;;;14.38;8.82;;;12.10;99.90;;;;;;5071661;28;20369;-77
2022/04/18 11:29:45;;;;;;;17.67;9.18;;;12.10;99.90;;;;;;5072247;28;20028;-78
2022/04/18 11:32:15;;;;;;;16.75;8.90;;;12.20;99.90;;;;;;5072188;28;20036;-77
2022/04/18 11:34:44;;;;;;;12.80;7.95;;;12.40;99.90;;;;;;5054440;28;20040;-77
2022/04/18 11:37:10;;;;;;;9.93;7.40;;;12.50;99.90;;;;;;5072226;28;20035;-78
2022/04/18 11:39:54;;;;;;;16.98;8.57;;;12.60;99.90;;;;;;5072073;28;20024;-77
2022/04/18 11:42:24;;;;;;;13.50;8.65;;;12.60;96.70;;;;;;5072085;28;20025;-77
2022/04/18 11:44:52;;;;;;;9.88;7.40;;;12.60;94.50;;;;;;5054463;28;20037;-78
2022/04/18 11:47:34;;;;;;;10.82;7.53;;;12.60;92.60;;;;;;5071701;28;20469;-77
2022/04/18 11:50:01;;;;;;;12.75;7.35;;;12.60;96.40;;;;;;5072075;28;20025;-78
2022/04/18 11:52:32;;;;;;;14.85;7.82;;;12.60;95.30;;;;;;5071932;28;20038;-77
2022/04/18 11:55:11;;;;;;;15.30;7.93;;;12.60;93.80;;;;;;5071862;28;20028;-77
2022/04/18 11:57:38;;;;;;;10.52;7.05;;;12.70;89.60;;;;;;5072185;28;20060;-77
2022/04/18 12:00:12;;;;;;;11.60;6.65;;;12.70;82.70;;;;;;5072019;28;20025;-77
2022/04/18 12:08:11;;;;;;;12.75;8.20;;;13.00;71.10;;;;;;5071518;28;20119;-77
2022/04/18 12:10:41;;;;;;;13.88;7.40;;;13.00;72.20;;;;;;5070574;28;20459;-77
2022/04/18 12:13:09;;;;;;;10.50;6.75;;;13.00;75.10;;;;;;5071985;28;20445;-77
2022/04/18 12:15:36;;;;;;;10.52;6.85;;;13.00;77.70;;;;;;5053651;28;20025;-77
2022/04/18 12:18:18;;;;;;;14.43;8.85;;;13.00;78.10;;;;;;5071841;28;20548;-77
2022/04/18 12:20:46;;;;;;;16.23;8.43;;;13.20;76.70;;;;;;5071608;28;20496;-77
2022/04/18 12:23:19;;;;;;;11.18;6.65;;;13.20;66.90;;;;;;5053057;28;20445;-78
2022/04/18 12:25:51;;;;;;;13.77;6.80;;;13.30;67.70;;;;;;5071523;28;20027;-77
2022/04/18 12:28:20;;;;;;;11.45;6.18;;;13.30;70.50;;;;;;5071720;28;20387;-78
2022/04/18 12:30:46;;;;;;;9.63;6.18;;;13.30;71.10;;;;;;5071423;28;20072;-77
2022/04/18 12:33:16;;;;;;;12.38;5.88;;;13.40;66.70;;;;;;5053691;28;20055;-78
2022/04/18 12:35:48;;;;;;;14.13;7.70;;;13.40;63.10;;;;;;5071500;28;20499;-78
2022/04/18 12:38:15;;;;;;;11.35;7.18;;;13.50;59.60;;;;;;5071536;28;20025;-77
2022/04/18 12:40:43;;;;;;;8.95;5.68;;;13.60;57.30;;;;;;5057640;28;20115;-77
2022/04/18 12:43:11;;;;;;;9.18;5.82;;;13.70;58.20;;;;;;5057828;28;20078;-77
2022/04/18 12:46:08;;;;;;;9.23;4.90;;;13.70;56.00;;;;;;5075281;28;20025;-77
2022/04/18 12:48:38;;;;;;;7.97;5.47;;;13.70;52.30;;;;;;5069486;28;20090;-77
2022/04/18 12:51:06;;;;;;;9.15;6.38;;;13.70;52.60;;;;;;5075233;28;20120;-77
2022/04/18 12:53:52;;;;;;;11.93;6.07;;;13.70;52.90;;;;;;5074500;28;20028;-77
2022/04/18 12:56:20;;;;;;;8.60;5.32;;;13.80;56.80;;;;;;5073740;28;20025;-79
2022/04/18 12:59:03;;;;;;;8.38;4.97;;;13.80;53.80;;;;;;5057395;28;20035;-78
2022/04/18 13:01:37;;;;;;;9.52;5.90;;;13.80;54.20;;;;;;5075137;28;20104;-78
2022/04/18 13:04:04;;;;;;;8.20;4.72;;;13.80;50.80;;;;;;5075340;28;20480;-78
2022/04/18 13:06:34;;;;;;;9.43;5.13;;;13.80;48.40;;;;;;5075392;28;20090;-79
2022/04/18 13:09:10;;;;;;;7.10;5.10;;;13.80;48.90;;;;;;5055580;28;20043;-78
2022/04/18 13:11:46;;;;;;;10.88;5.07;;;13.80;48.70;;;;;;5057104;28;20116;-78
2022/04/18 13:14:13;;;;;;;8.73;5.43;;;13.80;49.70;;;;;;5055573;28;20482;-78
2022/04/18 13:16:40;;;;;;;6.97;5.22;;;13.80;47.60;;;;;;5056594;28;20032;-78
2022/04/18 13:19:14;;;;;;;8.15;5.47;;;13.80;47.50;;;;;;5073414;28;20086;-78
2022/04/18 13:21:41;;;;;;;9.73;5.72;;;13.80;46.90;;;;;;5074975;28;20036;-79
2022/04/18 13:24:09;;;;;;;11.65;6.07;;;13.80;49.20;;;;;;5065301;28;20029;-79
2022/04/18 13:26:37;;;;;;;10.43;6.25;;;13.90;51.50;;;;;;5075284;28;20027;-78
2022/04/18 13:29:04;;;;;;;10.93;7.00;;;13.90;52.90;;;;;;5075058;28;20074;-79
2022/04/18 13:31:30;;;;;;;11.95;7.03;;;14.00;53.80;;;;;;5054016;28;20492;-79
2022/04/18 13:33:55;;;;;;;12.40;7.07;;;14.00;52.70;;;;;;5054756;28;20114;-79
2022/04/18 13:36:33;;;;;;;12.10;6.93;;;14.00;54.50;;;;;;5054927;28;20112;-78